Aviation Digital Data Service (ADDS)

Output produced by METARs form (1842 UTC 19 April 2019)
found at http://www.aviationweather.gov/metar/data/
 
Forecast for: KMEM (MEMPHIS , TN, US)
Text: KMEM 191729Z 1918/2024 35019G24KT P6SM VCSH OVC035
Forecast period: 1800 UTC 19 April 2019 to 0200 UTC 20 April 2019
Forecast type: FROM: standard forecast or significant change
Winds: from the N (350 degrees) at 22 MPH (19 knots; 9.8 m/s)
gusting to 28 MPH (24 knots; 12.3 m/s)
Visibility: 6 or more miles 10+ km)
Ceiling: 3500 feet AGL
Clouds: overcast cloud deck at 3500 feet AGL
Weather: VCSH  (showers in vicinity)
Text: FM200200 32009G16KT P6SM VCSH OVC050
Forecast period: 0200 to 0600 UTC 20 April 2019
Forecast type: FROM: standard forecast or significant change
Winds: from the NW (320 degrees) at 10 MPH (9 knots; 4.6 m/s)
gusting to 18 MPH (16 knots; 8.2 m/s)
Visibility: 6 or more miles 10+ km)
Ceiling: 5000 feet AGL
Clouds: overcast cloud deck at 5000 feet AGL
Weather: VCSH  (showers in vicinity)
Text: FM200600 31012G19KT P6SM FEW050
Forecast period: 0600 UTC 20 April 2019 to 0000 UTC 21 April 2019
Forecast type: FROM: standard forecast or significant change
Winds: from the NW (310 degrees) at 14 MPH (12 knots; 6.2 m/s)
gusting to 22 MPH (19 knots; 9.8 m/s)
Visibility: 6 or more miles 10+ km)
Ceiling: at least 12,000 feet AGL
Clouds: few clouds at 5000 feet AGL
Weather: no significant weather forecast for this period